Time;durP1;ratioP1;P1;durP2;ratioP2;P2;SDS_P1;SDS_P2;PMS_P1;PMS_P2;Temp;Humidity;BMP_temperature;BMP_pressure;BME280_temperature;BME280_humidity;BME280_pressure;Samples;Min_cycle;Max_cycle;Signal;HPM_P1;HPM_P2
2022/06/10 00:00:21;;;;;;;3.05;0.50;;;;;;;;;;6277378;22;20050;-78
2022/06/10 00:02:47;;;;;;;0.93;0.50;;;;;;;;;;6277345;22;20011;-78
2022/06/10 00:05:20;;;;;;;1.17;0.40;;;;;;;;;;6277202;22;20000;-78
2022/06/10 00:07:46;;;;;;;0.35;0.35;;;;;;;;;;6276930;22;20335;-78
2022/06/10 00:10:14;;;;;;;0.30;0.20;;;;;;;;;;6277274;22;19995;-77
2022/06/10 00:12:40;;;;;;;0.90;0.37;;;;;;;;;;6277430;22;20307;-78
2022/06/10 00:15:07;;;;;;;0.73;0.40;;;;;;;;;;6277328;22;20057;-78
2022/06/10 00:17:33;;;;;;;1.77;0.60;;;;;;;;;;6277286;22;19996;-77
2022/06/10 00:19:59;;;;;;;0.63;0.32;;;;;;;;;;6276947;22;19999;-78
2022/06/10 00:22:25;;;;;;;0.57;0.40;;;;;;;;;;6277300;22;20003;-78
2022/06/10 00:24:51;;;;;;;0.57;0.38;;;;;;;;;;6277145;22;19999;-78
2022/06/10 00:27:18;;;;;;;0.68;0.45;;;;;;;;;;6276963;22;20008;-78
2022/06/10 00:29:43;;;;;;;0.88;0.40;;;;;;;;;;6277111;22;20003;-78
2022/06/10 00:32:09;;;;;;;0.63;0.40;;;;;;;;;;6277143;22;20099;-78
2022/06/10 00:34:35;;;;;;;0.60;0.45;;;;;;;;;;6276799;22;20022;-78
2022/06/10 00:37:03;;;;;;;0.30;0.30;;;;;;;;;;6277005;22;20136;-78
2022/06/10 00:39:28;;;;;;;0.73;0.50;;;;;;;;;;6277147;22;20007;-76
2022/06/10 00:41:54;;;;;;;1.33;0.50;;;;;;;;;;6277207;22;20079;-78
2022/06/10 00:44:42;;;;;;;0.95;0.40;;;;;;;;;;6277196;22;20000;-77
2022/06/10 00:47:19;;;;;;;1.08;0.50;;;;;;;;;;6277331;22;20011;-78
2022/06/10 00:49:55;;;;;;;0.50;0.40;;;;;;;;;;6276950;22;20326;-78
2022/06/10 00:52:28;;;;;;;1.27;0.35;;;;;;;;;;6277222;22;20027;-78
2022/06/10 00:54:54;;;;;;;1.42;0.40;;;;;;;;;;6276745;22;20007;-78
2022/06/10 00:57:27;;;;;;;0.63;0.40;;;;;;;;;;6276817;22;20085;-78
2022/06/10 00:59:52;;;;;;;1.38;0.45;;;;;;;;;;6277430;22;20035;-78
2022/06/10 01:02:23;;;;;;;0.88;0.40;;;;;;;;;;6277460;22;20000;-78
2022/06/10 01:04:49;;;;;;;1.10;0.50;;;;;;;;;;6276970;22;20003;-78
2022/06/10 01:07:20;;;;;;;0.70;0.45;;;;;;;;;;6276974;22;20053;-78
2022/06/10 01:09:47;;;;;;;0.45;0.45;;;;;;;;;;6249699;22;20000;-78
2022/06/10 01:12:49;;;;;;;0.30;0.20;;;;;;;;;;6277333;22;20010;-77
2022/06/10 01:15:48;;;;;;;0.43;0.30;;;;;;;;;;6276775;22;20031;-78
2022/06/10 01:18:31;;;;;;;0.40;0.40;;;;;;;;;;6222834;22;20007;-77
2022/06/10 01:21:03;;;;;;;0.43;0.43;;;;;;;;;;6278898;22;20408;-77
2022/06/10 01:23:47;;;;;;;0.65;0.65;;;;;;;;;;6278777;22;19999;-78
2022/06/10 01:29:35;;;;;;;1.70;0.50;;;;;;;;;;6279032;22;20470;-78
2022/06/10 01:32:32;;;;;;;0.90;0.60;;;;;;;;;;6278973;22;20331;-78
2022/06/10 01:35:04;;;;;;;1.85;0.43;;;;;;;;;;6267405;22;20011;-76
2022/06/10 01:37:40;;;;;;;0.57;0.45;;;;;;;;;;6251595;22;20014;-77
2022/06/10 01:40:33;;;;;;;0.65;0.52;;;;;;;;;;6278626;22;20015;-77
2022/06/10 01:43:03;;;;;;;2.63;0.50;;;;;;;;;;6278333;22;20003;-78
2022/06/10 01:45:39;;;;;;;0.40;0.40;;;;;;;;;;6251577;22;20038;-78
2022/06/10 01:48:12;;;;;;;1.27;0.55;;;;;;;;;;6279080;22;20003;-77
2022/06/10 01:50:50;;;;;;;1.42;0.38;;;;;;;;;;6278693;22;20077;-77
2022/06/10 01:53:30;;;;;;;0.50;0.50;;;;;;;;;;6278333;22;19996;-78
2022/06/10 01:56:05;;;;;;;0.82;0.40;;;;;;;;;;6278441;22;20415;-76
2022/06/10 01:58:37;;;;;;;0.40;0.40;;;;;;;;;;6278915;22;19999;-77
2022/06/10 02:01:19;;;;;;;1.48;0.68;;;;;;;;;;6278805;22;20445;-76
2022/06/10 02:03:50;;;;;;;0.90;0.50;;;;;;;;;;6278385;22;20007;-75
2022/06/10 02:06:26;;;;;;;1.25;0.50;;;;;;;;;;6278460;22;20430;-76
2022/06/10 02:08:57;;;;;;;1.00;0.50;;;;;;;;;;6278695;22;20007;-76
2022/06/10 02:11:26;;;;;;;1.40;0.50;;;;;;;;;;6278337;22;20031;-76
2022/06/10 02:13:55;;;;;;;0.40;0.40;;;;;;;;;;6278758;22;20330;-75
2022/06/10 02:16:25;;;;;;;0.82;0.50;;;;;;;;;;6278799;22;20004;-76
2022/06/10 02:19:00;;;;;;;0.40;0.35;;;;;;;;;;6278180;22;20089;-76
2022/06/10 02:21:40;;;;;;;0.40;0.40;;;;;;;;;;6278350;22;20000;-76
2022/06/10 02:24:12;;;;;;;0.40;0.40;;;;;;;;;;6278512;22;20326;-76
2022/06/10 02:26:39;;;;;;;0.47;0.47;;;;;;;;;;6278735;22;20111;-76
2022/06/10 02:29:10;;;;;;;0.70;0.43;;;;;;;;;;6277856;22;20050;-75
2022/06/10 02:31:43;;;;;;;0.82;0.50;;;;;;;;;;6278093;22;20419;-76
2022/06/10 02:34:09;;;;;;;0.85;0.40;;;;;;;;;;6278100;22;20003;-76
2022/06/10 02:36:55;;;;;;;0.40;0.40;;;;;;;;;;6278024;22;20326;-75
2022/06/10 02:39:33;;;;;;;0.50;0.40;;;;;;;;;;6277909;22;20003;-75
2022/06/10 02:42:19;;;;;;;0.60;0.40;;;;;;;;;;6278336;22;20447;-76
2022/06/10 02:45:10;;;;;;;1.38;0.50;;;;;;;;;;6278106;22;20131;-76
2022/06/10 02:47:53;;;;;;;2.38;0.65;;;;;;;;;;6277949;22;19996;-76
2022/06/10 02:50:19;;;;;;;1.10;0.50;;;;;;;;;;6278316;22;20000;-76
2022/06/10 02:52:46;;;;;;;0.40;0.40;;;;;;;;;;6277949;22;20004;-75
2022/06/10 02:55:18;;;;;;;0.68;0.40;;;;;;;;;;6277808;22;20004;-76
2022/06/10 03:01:11;;;;;;;0.55;0.55;;;;;;;;;;6277878;22;20022;-76
2022/06/10 03:03:55;;;;;;;1.77;0.50;;;;;;;;;;6277928;22;20075;-76
2022/06/10 03:06:32;;;;;;;1.48;0.52;;;;;;;;;;6277864;22;20003;-75
2022/06/10 03:09:15;;;;;;;0.40;0.40;;;;;;;;;;6278278;22;20008;-76
2022/06/10 03:11:57;;;;;;;0.40;0.40;;;;;;;;;;6277613;22;19999;-76
2022/06/10 03:14:48;;;;;;;1.10;0.50;;;;;;;;;;6277670;22;20008;-75
2022/06/10 03:17:31;;;;;;;0.30;0.30;;;;;;;;;;6278144;22;20069;-75
2022/06/10 03:20:15;;;;;;;1.80;0.50;;;;;;;;;;6277841;22;20004;-76
2022/06/10 03:22:56;;;;;;;0.70;0.50;;;;;;;;;;6277821;22;20435;-76
2022/06/10 03:25:35;;;;;;;0.80;0.40;;;;;;;;;;6277735;22;20012;-76
2022/06/10 03:28:23;;;;;;;1.85;0.40;;;;;;;;;;6277691;22;20015;-75
2022/06/10 03:30:59;;;;;;;0.50;0.40;;;;;;;;;;6277624;22;20022;-76
2022/06/10 03:33:37;;;;;;;0.35;0.35;;;;;;;;;;6277688;22;20000;-76
2022/06/10 03:36:09;;;;;;;0.90;0.55;;;;;;;;;;6277599;22;19999;-75
2022/06/10 03:38:40;;;;;;;0.68;0.52;;;;;;;;;;6277832;22;20426;-75
2022/06/10 03:41:06;;;;;;;0.52;0.20;;;;;;;;;;6277268;22;20061;-76
2022/06/10 03:43:39;;;;;;;0.43;0.40;;;;;;;;;;6277591;22;20015;-76
2022/06/10 03:46:08;;;;;;;0.85;0.40;;;;;;;;;;6277472;22;20007;-75
2022/06/10 03:48:36;;;;;;;0.77;0.40;;;;;;;;;;6277710;22;20009;-76
2022/06/10 03:51:05;;;;;;;0.43;0.30;;;;;;;;;;6277672;22;20008;-76
2022/06/10 03:53:30;;;;;;;0.53;0.40;;;;;;;;;;6277471;22;20036;-76
2022/06/10 03:55:56;;;;;;;0.68;0.47;;;;;;;;;;6250199;22;20004;-75
2022/06/10 03:58:21;;;;;;;0.45;0.30;;;;;;;;;;6277418;22;20331;-75
2022/06/10 04:00:47;;;;;;;0.68;0.50;;;;;;;;;;6277242;22;20008;-76
2022/06/10 04:03:13;;;;;;;2.35;0.40;;;;;;;;;;6277293;22;20004;-76
2022/06/10 04:05:39;;;;;;;0.45;0.30;;;;;;;;;;6277422;22;20481;-75
2022/06/10 04:08:06;;;;;;;0.95;0.52;;;;;;;;;;6277341;22;20074;-76
2022/06/10 04:10:32;;;;;;;1.90;0.40;;;;;;;;;;6277409;22;20035;-76
2022/06/10 04:12:58;;;;;;;1.02;0.38;;;;;;;;;;6277183;22;20082;-76
2022/06/10 04:15:26;;;;;;;0.40;0.40;;;;;;;;;;6277242;22;20430;-76
2022/06/10 04:17:52;;;;;;;0.30;0.30;;;;;;;;;;6277054;22;20097;-75
2022/06/10 04:20:25;;;;;;;0.73;0.50;;;;;;;;;;6277326;22;20003;-75
2022/06/10 04:22:50;;;;;;;0.73;0.30;;;;;;;;;;6277465;22;20000;-76
2022/06/10 04:25:16;;;;;;;0.75;0.50;;;;;;;;;;6277345;22;20011;-75
2022/06/10 04:27:43;;;;;;;0.40;0.32;;;;;;;;;;6277067;22;20015;-76
2022/06/10 04:30:23;;;;;;;0.68;0.40;;;;;;;;;;6277155;22;20008;-77
2022/06/10 04:32:48;;;;;;;0.85;0.40;;;;;;;;;;6277106;22;20061;-76
2022/06/10 04:35:14;;;;;;;0.55;0.38;;;;;;;;;;6276854;22;20445;-76
2022/06/10 04:37:40;;;;;;;0.70;0.70;;;;;;;;;;6277520;22;20004;-76
2022/06/10 04:40:06;;;;;;;1.17;0.50;;;;;;;;;;6277111;22;20004;-76
2022/06/10 04:42:32;;;;;;;1.85;0.40;;;;;;;;;;6277146;22;20057;-75
2022/06/10 04:44:58;;;;;;;0.52;0.32;;;;;;;;;;6276876;22;20027;-76
2022/06/10 04:47:23;;;;;;;1.23;0.40;;;;;;;;;;6276864;22;20423;-75
2022/06/10 04:49:49;;;;;;;0.40;0.40;;;;;;;;;;6277066;22;20083;-77
2022/06/10 04:52:15;;;;;;;0.80;0.40;;;;;;;;;;6249673;22;20004;-77
2022/06/10 04:54:40;;;;;;;1.48;0.52;;;;;;;;;;6278892;22;20071;-77
2022/06/10 04:57:06;;;;;;;0.90;0.40;;;;;;;;;;6279098;22;20010;-83
2022/06/10 04:59:31;;;;;;;1.50;0.50;;;;;;;;;;6251777;22;20083;-82
2022/06/10 05:01:57;;;;;;;0.90;0.50;;;;;;;;;;6279423;22;20038;-82
2022/06/10 05:04:23;;;;;;;1.15;0.50;;;;;;;;;;6279075;22;20031;-82
2022/06/10 05:06:48;;;;;;;0.47;0.40;;;;;;;;;;6279171;22;19999;-82
2022/06/10 05:09:14;;;;;;;0.50;0.45;;;;;;;;;;6278964;22;20075;-78
2022/06/10 05:11:39;;;;;;;0.65;0.30;;;;;;;;;;6278746;22;20003;-78
2022/06/10 05:14:04;;;;;;;0.93;0.60;;;;;;;;;;6279019;22;20430;-78
2022/06/10 05:16:30;;;;;;;1.10;0.50;;;;;;;;;;6279151;22;19995;-79
2022/06/10 05:18:57;;;;;;;0.80;0.68;;;;;;;;;;6278951;22;20000;-79
2022/06/10 05:21:22;;;;;;;0.47;0.47;;;;;;;;;;6279665;22;19999;-78
2022/06/10 05:23:48;;;;;;;0.55;0.50;;;;;;;;;;6279010;22;20411;-77
2022/06/10 05:26:15;;;;;;;1.67;0.30;;;;;;;;;;6278704;22;20018;-78
2022/06/10 05:28:41;;;;;;;0.82;0.60;;;;;;;;;;6251302;22;20019;-78
2022/06/10 05:31:06;;;;;;;0.35;0.30;;;;;;;;;;6278853;22;20057;-78
2022/06/10 05:34:44;;;;;;;0.40;0.40;;;;;;;;;;6278573;22;20014;-78
2022/06/10 05:36:18;;;;;;;1.88;0.50;;;;;;;;;;6278357;22;20083;-79
2022/06/10 05:38:44;;;;;;;1.55;0.60;;;;;;;;;;6278916;22;20035;-78
2022/06/10 05:43:55;;;;;;;0.43;0.40;;;;;;;;;;6278522;22;20327;-80
2022/06/10 05:46:21;;;;;;;0.40;0.28;;;;;;;;;;6278582;22;20004;-79
2022/06/10 05:48:46;;;;;;;1.00;0.88;;;;;;;;;;6278615;22;20004;-79
2022/06/10 05:51:11;;;;;;;0.70;0.70;;;;;;;;;;6278650;22;19999;-82
2022/06/10 05:53:37;;;;;;;1.75;0.93;;;;;;;;;;6278884;22;20007;-81
2022/06/10 05:56:03;;;;;;;1.60;0.90;;;;;;;;;;6278757;22;20003;-82
2022/06/10 05:58:30;;;;;;;1.23;0.60;;;;;;;;;;6278685;22;19999;-80
2022/06/10 06:00:55;;;;;;;1.02;0.68;;;;;;;;;;6278357;22;20007;-80
2022/06/10 06:03:21;;;;;;;1.92;0.70;;;;;;;;;;6278424;22;20004;-79
2022/06/10 06:05:46;;;;;;;0.82;0.43;;;;;;;;;;6278309;22;20067;-81
2022/06/10 06:08:12;;;;;;;0.70;0.60;;;;;;;;;;6278289;22;20007;-85
2022/06/10 06:10:37;;;;;;;1.48;0.50;;;;;;;;;;6278330;22;20431;-79
2022/06/10 06:13:03;;;;;;;0.52;0.40;;;;;;;;;;6278325;22;20423;-78
2022/06/10 06:15:28;;;;;;;2.65;0.60;;;;;;;;;;6278506;22;20075;-79
2022/06/10 06:17:54;;;;;;;1.05;0.50;;;;;;;;;;6278197;22;20433;-79
2022/06/10 06:20:21;;;;;;;0.70;0.40;;;;;;;;;;6278230;22;20039;-85
2022/06/10 06:22:47;;;;;;;1.02;0.50;;;;;;;;;;6278293;22;19999;-86
2022/06/10 06:25:15;;;;;;;1.27;0.30;;;;;;;;;;6278250;22;20058;-88
2022/06/10 06:27:42;;;;;;;0.55;0.50;;;;;;;;;;6251396;22;20008;-88
2022/06/10 06:30:14;;;;;;;1.13;0.40;;;;;;;;;;6278268;22;20039;-79
2022/06/10 06:32:41;;;;;;;0.57;0.47;;;;;;;;;;6277978;22;19999;-81
2022/06/10 06:35:08;;;;;;;1.88;1.10;;;;;;;;;;6278091;22;20419;-81
2022/06/10 06:37:34;;;;;;;1.90;1.23;;;;;;;;;;6278465;22;20075;-81
2022/06/10 06:39:59;;;;;;;1.67;0.57;;;;;;;;;;6278381;22;20035;-79
2022/06/10 06:42:25;;;;;;;0.70;0.40;;;;;;;;;;6278036;22;19999;-80
2022/06/10 06:44:50;;;;;;;0.77;0.60;;;;;;;;;;6277566;22;20000;-79
2022/06/10 06:47:16;;;;;;;1.55;0.60;;;;;;;;;;6277957;22;20003;-79
2022/06/10 06:49:42;;;;;;;1.05;0.40;;;;;;;;;;6277921;22;20010;-79
2022/06/10 06:52:08;;;;;;;0.40;0.40;;;;;;;;;;6277998;22;20478;-79
2022/06/10 06:54:36;;;;;;;0.70;0.50;;;;;;;;;;6277989;22;20078;-79
2022/06/10 06:57:01;;;;;;;0.85;0.40;;;;;;;;;;6278119;22;20494;-79
2022/06/10 06:59:27;;;;;;;0.75;0.50;;;;;;;;;;6277970;22;20031;-79
2022/06/10 07:01:52;;;;;;;1.20;0.50;;;;;;;;;;6277912;22;20362;-79
2022/06/10 07:04:17;;;;;;;0.30;0.30;;;;;;;;;;6277798;22;20023;-79
2022/06/10 07:06:43;;;;;;;0.68;0.40;;;;;;;;;;6278228;22;20003;-79
2022/06/10 07:09:09;;;;;;;1.80;0.50;;;;;;;;;;6277689;22;20011;-79
2022/06/10 07:11:35;;;;;;;0.47;0.32;;;;;;;;;;6277926;22;20028;-79
2022/06/10 07:14:01;;;;;;;0.60;0.50;;;;;;;;;;6277311;22;20004;-79
2022/06/10 07:16:27;;;;;;;0.47;0.47;;;;;;;;;;6276915;22;20022;-80
2022/06/10 07:18:53;;;;;;;0.40;0.40;;;;;;;;;;6277602;22;20403;-79
2022/06/10 07:21:18;;;;;;;2.70;0.57;;;;;;;;;;6277938;22;20092;-79
2022/06/10 07:23:44;;;;;;;3.58;0.43;;;;;;;;;;6277449;22;20443;-79
2022/06/10 07:26:09;;;;;;;1.80;0.45;;;;;;;;;;6277684;22;20023;-79
2022/06/10 07:28:36;;;;;;;0.60;0.60;;;;;;;;;;6277546;22;20011;-79
2022/06/10 07:31:02;;;;;;;0.40;0.40;;;;;;;;;;6277709;22;20015;-79
2022/06/10 07:33:27;;;;;;;2.75;0.60;;;;;;;;;;6277534;22;20003;-79
2022/06/10 07:35:55;;;;;;;1.08;0.30;;;;;;;;;;6277491;22;20034;-80
2022/06/10 07:38:20;;;;;;;0.75;0.30;;;;;;;;;;6277754;22;20434;-80
2022/06/10 07:43:32;;;;;;;1.27;0.43;;;;;;;;;;6277450;22;20011;-80
2022/06/10 07:45:59;;;;;;;1.27;0.50;;;;;;;;;;6277425;22;20014;-80
2022/06/10 07:48:25;;;;;;;1.80;0.57;;;;;;;;;;6277498;22;20018;-79
2022/06/10 07:50:51;;;;;;;2.75;0.40;;;;;;;;;;6277515;22;20415;-79
2022/06/10 07:53:17;;;;;;;0.95;0.35;;;;;;;;;;6277428;22;20004;-79
2022/06/10 07:55:44;;;;;;;1.23;0.45;;;;;;;;;;6277267;22;20050;-80
2022/06/10 07:58:10;;;;;;;0.57;0.57;;;;;;;;;;6277325;22;20483;-82
2022/06/10 08:00:36;;;;;;;2.25;0.40;;;;;;;;;;6277086;22;20083;-78
2022/06/10 08:03:03;;;;;;;2.10;0.47;;;;;;;;;;6277215;22;20004;-80
2022/06/10 08:05:28;;;;;;;0.95;0.40;;;;;;;;;;6277466;22;20004;-80
2022/06/10 08:07:54;;;;;;;1.10;0.50;;;;;;;;;;6277490;22;20117;-80
2022/06/10 08:10:25;;;;;;;0.90;0.50;;;;;;;;;;6277743;22;20000;-79
2022/06/10 08:12:50;;;;;;;0.63;0.45;;;;;;;;;;6277230;22;20027;-78
2022/06/10 08:15:18;;;;;;;1.27;0.60;;;;;;;;;;6277161;22;20000;-80
2022/06/10 08:17:43;;;;;;;1.05;0.63;;;;;;;;;;6277517;22;20079;-78
2022/06/10 08:20:17;;;;;;;0.73;0.40;;;;;;;;;;6277028;22;20035;-79
2022/06/10 08:22:42;;;;;;;1.23;0.40;;;;;;;;;;6276743;22;20007;-78
2022/06/10 08:25:10;;;;;;;0.50;0.40;;;;;;;;;;6277491;22;20011;-78
2022/06/10 08:27:36;;;;;;;1.52;0.47;;;;;;;;;;6276569;22;20090;-76
2022/06/10 08:30:04;;;;;;;0.70;0.40;;;;;;;;;;6277014;22;20112;-78
2022/06/10 08:32:30;;;;;;;0.60;0.40;;;;;;;;;;6277101;22;20046;-78
2022/06/10 08:34:55;;;;;;;2.10;0.32;;;;;;;;;;6249818;22;20012;-76
2022/06/10 08:37:21;;;;;;;0.70;0.47;;;;;;;;;;6277082;22;20000;-79
2022/06/10 08:39:47;;;;;;;2.70;0.50;;;;;;;;;;6277046;22;20004;-77
2022/06/10 08:42:25;;;;;;;0.90;0.50;;;;;;;;;;6277068;22;20427;-77
2022/06/10 08:45:01;;;;;;;0.50;0.50;;;;;;;;;;6276999;22;20415;-78
2022/06/10 08:47:52;;;;;;;0.50;0.45;;;;;;;;;;6249821;22;20015;-77
2022/06/10 08:50:22;;;;;;;0.85;0.40;;;;;;;;;;6277005;22;20092;-79
2022/06/10 08:53:24;;;;;;;2.15;0.52;;;;;;;;;;6277327;22;19996;-78
2022/06/10 08:56:17;;;;;;;0.38;0.38;;;;;;;;;;6277055;22;20000;-79
2022/06/10 08:58:56;;;;;;;0.43;0.35;;;;;;;;;;6276966;22;20018;-80
2022/06/10 09:01:23;;;;;;;0.55;0.30;;;;;;;;;;6276898;22;20004;-77
2022/06/10 09:03:51;;;;;;;0.40;0.30;;;;;;;;;;6276730;22;20415;-78
2022/06/10 09:06:29;;;;;;;3.00;1.00;;;;;;;;;;6276962;22;20435;-78
2022/06/10 09:08:59;;;;;;;1.25;0.80;;;;;;;;;;6277045;22;20008;-78
2022/06/10 09:12:07;;;;;;;0.50;0.50;;;;;;;;;;6276877;22;20060;-78
2022/06/10 09:14:34;;;;;;;2.40;1.63;;;;;;;;;;6276633;22;20007;-79
2022/06/10 09:17:11;;;;;;;1.25;0.90;;;;;;;;;;6277090;22;19999;-79
2022/06/10 09:20:00;;;;;;;1.25;0.50;;;;;;;;;;6276824;22;20014;-78
2022/06/10 09:22:55;;;;;;;0.70;0.50;;;;;;;;;;6277129;22;20034;-79
2022/06/10 09:25:33;;;;;;;0.90;0.43;;;;;;;;;;6273570;22;20012;-80
2022/06/10 09:28:00;;;;;;;2.07;0.40;;;;;;;;;;6276744;22;20022;-79
2022/06/10 09:30:47;;;;;;;1.13;0.35;;;;;;;;;;6276821;22;20011;-79
2022/06/10 09:33:44;;;;;;;0.40;0.30;;;;;;;;;;6276762;22;20070;-79
2022/06/10 09:36:16;;;;;;;0.25;0.25;;;;;;;;;;6265966;22;20134;-80
2022/06/10 09:38:55;;;;;;;0.35;0.32;;;;;;;;;;6276795;22;20027;-80
2022/06/10 09:41:34;;;;;;;1.17;0.50;;;;;;;;;;6278986;22;20072;-85
2022/06/10 09:44:39;;;;;;;0.52;0.40;;;;;;;;;;6251701;22;20007;-88
2022/06/10 09:47:13;;;;;;;1.05;0.50;;;;;;;;;;6257174;22;20445;-87
2022/06/10 09:49:57;;;;;;;2.85;0.95;;;;;;;;;;6278805;22;19999;-87
2022/06/10 09:53:06;;;;;;;0.52;0.52;;;;;;;;;;6251594;22;20494;-88
2022/06/10 09:55:43;;;;;;;;;;;;;;;;;;6279483;22;20426;-85
2022/06/10 09:58:32;;;;;;;0.55;0.50;;;;;;;;;;6278622;22;19907;-87
2022/06/10 10:01:03;;;;;;;;;;;;;;;;;;6279049;22;20053;-85
2022/06/10 10:03:53;;;;;;;1.42;0.50;;;;;;;;;;6278564;22;19907;-82
2022/06/10 10:06:52;;;;;;;0.77;0.50;;;;;;;;;;6278529;22;20087;-84
2022/06/10 10:09:51;;;;;;;0.35;0.30;;;;;;;;;;6278452;22;20007;-80
2022/06/10 10:12:33;;;;;;;1.00;0.40;;;;;;;;;;6278434;22;20000;-80
2022/06/10 10:15:04;;;;;;;1.63;0.55;;;;;;;;;;6278359;22;20071;-76
2022/06/10 10:17:57;;;;;;;1.10;0.40;;;;;;;;;;6278470;22;20000;-79
2022/06/10 10:20:43;;;;;;;0.40;0.38;;;;;;;;;;6278556;22;20074;-78
2022/06/10 10:23:17;;;;;;;0.55;0.50;;;;;;;;;;6201247;22;20077;-79
2022/06/10 10:25:44;;;;;;;0.50;0.30;;;;;;;;;;6278167;22;20003;-81
2022/06/10 10:28:24;;;;;;;2.53;0.63;;;;;;;;;;6277926;22;20035;-81
2022/06/10 10:31:09;;;;;;;0.60;0.40;;;;;;;;;;6278155;22;20003;-80
2022/06/10 10:33:35;;;;;;;0.50;0.40;;;;;;;;;;6278314;22;20004;-79
2022/06/10 10:36:01;;;;;;;0.57;0.50;;;;;;;;;;6278199;22;19999;-78
2022/06/10 10:38:42;;;;;;;0.40;0.40;;;;;;;;;;6278213;22;20057;-81
2022/06/10 10:41:28;;;;;;;0.65;0.60;;;;;;;;;;6277877;22;20004;-78
2022/06/10 10:43:59;;;;;;;0.82;0.50;;;;;;;;;;6278283;22;20361;-78
2022/06/10 10:46:39;;;;;;;0.43;0.43;;;;;;;;;;6277924;22;20053;-79
2022/06/10 10:49:20;;;;;;;1.23;0.90;;;;;;;;;;6278183;22;20488;-80
2022/06/10 10:51:47;;;;;;;0.75;0.70;;;;;;;;;;6277597;22;20010;-78
2022/06/10 10:54:22;;;;;;;0.50;0.50;;;;;;;;;;6277915;22;20003;-79
2022/06/10 10:56:49;;;;;;;0.57;0.55;;;;;;;;;;6277826;22;19999;-79
2022/06/10 10:59:28;;;;;;;1.13;0.52;;;;;;;;;;6277832;22;19999;-79
2022/06/10 11:01:54;;;;;;;0.70;0.52;;;;;;;;;;6277751;22;20000;-82
2022/06/10 11:04:33;;;;;;;1.48;0.60;;;;;;;;;;6278088;22;19996;-85
2022/06/10 11:07:13;;;;;;;0.68;0.50;;;;;;;;;;6251180;22;20026;-83
2022/06/10 11:10:16;;;;;;;1.48;0.60;;;;;;;;;;6277918;22;20004;-77
2022/06/10 11:12:41;;;;;;;0.98;0.70;;;;;;;;;;6221737;22;20016;-78
2022/06/10 11:15:17;;;;;;;1.90;0.68;;;;;;;;;;6277696;22;20004;-77
2022/06/10 11:17:46;;;;;;;3.72;0.77;;;;;;;;;;6277763;22;20408;-78
2022/06/10 11:20:14;;;;;;;2.25;0.80;;;;;;;;;;6277594;22;20011;-80
2022/06/10 11:22:40;;;;;;;0.45;0.45;;;;;;;;;;6277683;22;20038;-80
2022/06/10 11:25:14;;;;;;;1.67;1.00;;;;;;;;;;6277800;22;20327;-82
2022/06/10 11:27:57;;;;;;;2.70;1.60;;;;;;;;;;6277506;22;20457;-81
2022/06/10 11:30:32;;;;;;;0.77;0.57;;;;;;;;;;6277558;22;20365;-77
2022/06/10 11:33:01;;;;;;;1.10;0.60;;;;;;;;;;6277694;22;20419;-78
2022/06/10 11:35:39;;;;;;;0.47;0.47;;;;;;;;;;6277879;22;20006;-79
2022/06/10 11:38:06;;;;;;;1.33;0.70;;;;;;;;;;6277718;22;19995;-83
2022/06/10 11:40:49;;;;;;;0.60;0.60;;;;;;;;;;6277542;22;20003;-84
2022/06/10 11:43:35;;;;;;;0.90;0.90;;;;;;;;;;6277618;22;20003;-79
2022/06/10 11:46:06;;;;;;;1.90;1.10;;;;;;;;;;6277942;22;20061;-79
2022/06/10 17:26:29;;;;;;;1.53;1.00;;;;;;;;;;6181013;23;20021;-76
2022/06/10 17:28:58;;;;;;;1.67;1.00;;;;;;;;;;6186421;23;20243;-76
2022/06/10 17:31:26;;;;;;;1.70;1.00;;;;;;;;;;6186038;23;20016;-87
2022/06/10 17:33:53;;;;;;;1.15;1.05;;;;;;;;;;6212751;23;20080;-77
2022/06/10 17:36:21;;;;;;;1.25;0.90;;;;;;;;;;6216610;23;20005;-89
2022/06/10 17:38:50;;;;;;;5.70;1.15;;;;;;;;;;6215936;23;20024;-75
2022/06/10 17:41:35;;;;;;;2.35;1.38;;;;;;;;;;6215856;23;20446;-75
2022/06/10 17:44:28;;;;;;;1.80;1.30;;;;;;;;;;6215466;23;20014;-79
2022/06/10 17:47:19;;;;;;;0.50;0.40;;;;;;;;;;6216692;23;20011;-85
2022/06/10 17:49:54;;;;;;;2.13;0.80;;;;;;;;;;6215227;23;20000;-76
2022/06/10 17:52:20;;;;;;;0.70;0.65;;;;;;;;;;6215791;23;20009;-77
2022/06/10 17:54:46;;;;;;;0.95;0.80;;;;;;;;;;6216187;23;20339;-76
2022/06/10 17:57:18;;;;;;;0.50;0.35;;;;;;;;;;6216432;23;20071;-76
2022/06/10 17:59:44;;;;;;;1.27;0.65;;;;;;;;;;6216123;23;20012;-79
2022/06/10 18:02:18;;;;;;;0.60;0.60;;;;;;;;;;6219082;23;20058;-81
2022/06/10 18:04:46;;;;;;;2.10;1.60;;;;;;;;;;6220762;23;20005;-82
2022/06/10 18:07:14;;;;;;;2.42;1.73;;;;;;;;;;6222324;23;20008;-91
2022/06/10 18:09:39;;;;;;;0.68;0.40;;;;;;;;;;6219147;23;20039;-92
2022/06/10 18:12:05;;;;;;;0.88;0.60;;;;;;;;;;6220654;23;20000;-96
2022/06/10 18:17:20;;;;;;;0.43;0.40;;;;;;;;;;6218231;23;20012;-80
2022/06/10 18:19:45;;;;;;;0.63;0.40;;;;;;;;;;6218391;23;20036;-92
2022/06/10 18:22:15;;;;;;;1.83;0.50;;;;;;;;;;6216881;23;20000;-78
2022/06/10 18:24:41;;;;;;;0.55;0.40;;;;;;;;;;6217309;23;20080;-88
2022/06/10 18:27:17;;;;;;;0.40;0.40;;;;;;;;;;6217228;23;20087;-82
2022/06/10 18:29:47;;;;;;;0.65;0.30;;;;;;;;;;6217296;23;20001;-81
2022/06/10 18:32:35;;;;;;;0.50;0.47;;;;;;;;;;6217581;23;20301;-94
2022/06/10 18:35:17;;;;;;;1.67;0.40;;;;;;;;;;6098202;23;20445;-93
2022/06/10 18:37:45;;;;;;;0.40;0.40;;;;;;;;;;6097010;23;20457;-93
2022/06/10 18:40:18;;;;;;;0.55;0.40;;;;;;;;;;6072346;23;20006;-93
2022/06/10 18:42:44;;;;;;;0.98;0.50;;;;;;;;;;6096482;23;20017;-80
2022/06/10 18:45:11;;;;;;;0.50;0.50;;;;;;;;;;6096920;23;20002;-79
2022/06/10 18:47:37;;;;;;;0.50;0.50;;;;;;;;;;6096787;23;20011;-96
2022/06/10 18:50:26;;;;;;;0.30;0.30;;;;;;;;;;6099222;23;20054;-85
2022/06/10 18:52:59;;;;;;;1.13;0.60;;;;;;;;;;6097586;23;20015;-95
2022/06/10 18:55:27;;;;;;;1.10;0.40;;;;;;;;;;6096568;23;20003;-94
2022/06/10 18:57:55;;;;;;;2.38;1.20;;;;;;;;;;6096719;23;20010;-80
2022/06/10 19:00:26;;;;;;;1.00;1.00;;;;;;;;;;6096048;23;20010;-86
2022/06/10 19:02:52;;;;;;;0.80;0.60;;;;;;;;;;6096432;23;20391;-79
2022/06/10 19:05:22;;;;;;;1.38;0.80;;;;;;;;;;6095902;23;20010;-76
2022/06/10 19:07:48;;;;;;;1.13;0.70;;;;;;;;;;6096073;23;20029;-78
2022/06/10 19:10:29;;;;;;;1.60;1.10;;;;;;;;;;6095796;23;20339;-78
2022/06/10 19:12:55;;;;;;;1.35;0.95;;;;;;;;;;6199120;23;20032;-77
2022/06/10 19:15:22;;;;;;;0.65;0.57;;;;;;;;;;6216934;23;20424;-78
2022/06/10 19:17:50;;;;;;;2.85;0.90;;;;;;;;;;6216785;23;20009;-78
2022/06/10 19:20:36;;;;;;;1.30;1.17;;;;;;;;;;6217036;23;20015;-78
2022/06/10 19:23:24;;;;;;;1.63;0.90;;;;;;;;;;6216829;23;20024;-79
2022/06/10 19:25:54;;;;;;;1.53;0.57;;;;;;;;;;6216719;23;20068;-78
2022/06/10 19:28:26;;;;;;;0.75;0.40;;;;;;;;;;6216776;23;20004;-78
2022/06/10 19:30:54;;;;;;;1.85;0.50;;;;;;;;;;6216774;23;19996;-87
2022/06/10 19:33:25;;;;;;;0.40;0.40;;;;;;;;;;6216943;23;20412;-82
2022/06/10 19:35:54;;;;;;;1.52;0.80;;;;;;;;;;6216951;23;20056;-78
2022/06/10 19:38:23;;;;;;;2.00;0.60;;;;;;;;;;6216967;23;20088;-88
2022/06/10 19:40:51;;;;;;;1.15;0.57;;;;;;;;;;6216962;23;20047;-78
2022/06/10 19:46:20;;;;;;;4.30;0.68;;;;;;;;;;6216741;23;20462;-78
2022/06/10 19:48:46;;;;;;;1.20;0.70;;;;;;;;;;6216804;23;20420;-79
2022/06/10 19:51:20;;;;;;;2.95;0.52;;;;;;;;;;6217800;23;20008;-86
2022/06/10 19:53:46;;;;;;;1.17;0.70;;;;;;;;;;6190096;23;20325;-79
2022/06/10 19:56:27;;;;;;;0.57;0.57;;;;;;;;;;6217523;23;20010;-79
2022/06/10 19:58:52;;;;;;;2.08;0.70;;;;;;;;;;6216868;23;20005;-84
2022/06/10 20:01:26;;;;;;;1.65;0.73;;;;;;;;;;6217477;23;20482;-78
2022/06/10 20:04:06;;;;;;;2.15;0.88;;;;;;;;;;6218439;23;20102;-87
2022/06/10 20:06:32;;;;;;;1.77;0.70;;;;;;;;;;6221132;23;20052;-87
2022/06/10 20:08:57;;;;;;;0.50;0.50;;;;;;;;;;6217733;23;20031;-86
2022/06/10 20:11:23;;;;;;;0.77;0.60;;;;;;;;;;6219573;23;20001;-78
2022/06/10 20:13:49;;;;;;;1.80;0.63;;;;;;;;;;6217116;23;20001;-78
2022/06/10 20:16:25;;;;;;;1.02;0.40;;;;;;;;;;6218971;23;20487;-78
2022/06/10 20:18:55;;;;;;;2.35;1.65;;;;;;;;;;6205913;23;20005;-80
2022/06/10 20:21:21;;;;;;;1.40;1.30;;;;;;;;;;6216319;23;20134;-85
2022/06/10 20:23:50;;;;;;;2.70;2.05;;;;;;;;;;6216151;23;20008;-76
2022/06/10 20:26:24;;;;;;;1.35;1.20;;;;;;;;;;6216237;23;20084;-76
2022/06/10 20:28:50;;;;;;;2.17;1.45;;;;;;;;;;6216419;23;20432;-78
2022/06/10 20:31:29;;;;;;;1.52;0.77;;;;;;;;;;6219725;23;20093;-80
2022/06/10 20:33:55;;;;;;;1.50;1.07;;;;;;;;;;6216530;23;20004;-79
2022/06/10 20:36:24;;;;;;;1.92;1.00;;;;;;;;;;6218090;23;20222;-76
2022/06/10 20:38:50;;;;;;;0.80;0.70;;;;;;;;;;6217565;23;20000;-76
2022/06/10 20:41:20;;;;;;;1.05;0.60;;;;;;;;;;6218500;23;20015;-75
2022/06/10 20:43:45;;;;;;;1.05;0.57;;;;;;;;;;6216145;23;20016;-80
2022/06/10 20:46:33;;;;;;;1.05;0.50;;;;;;;;;;6217133;23;20001;-76
2022/06/10 20:49:06;;;;;;;1.02;0.60;;;;;;;;;;6191428;23;20036;-80
2022/06/10 20:51:36;;;;;;;0.50;0.50;;;;;;;;;;6215314;23;20013;-75
2022/06/10 20:54:05;;;;;;;1.48;0.60;;;;;;;;;;6218761;23;20009;-75
2022/06/10 20:56:31;;;;;;;0.53;0.50;;;;;;;;;;6216307;23;20001;-76
2022/06/10 20:58:56;;;;;;;2.00;0.60;;;;;;;;;;6217871;23;20007;-77
2022/06/10 21:01:46;;;;;;;1.00;0.57;;;;;;;;;;6216442;23;20062;-82
2022/06/10 21:09:46;;;;;;;1.08;0.60;;;;;;;;;;6217226;23;20015;-76
2022/06/10 21:12:12;;;;;;;1.55;0.70;;;;;;;;;;6189502;23;20001;-76